Hovedside
METAR-TAF:

METAR-TAF

Lufthavner :

Ranong, Thailand

breddegrad: 09-59N, lengdegrad: 098-37E, høyde over havet: 7 m

Gjeldene værobservasjon

Denne rapporten ble laget for 29 minutter siden, klokken 11:00 UTC
Vind 5 kt fra Sørvest, skiftende mellom Sør og Vest
Temperatur 30°C
Luftfuktighet 75%
Trykk 1007 hPa
Sikt 10 km eller mer
Spredte skyer i en høyde av 2000 ft

METAR: VTSR 151100Z 22005KT 180V260 9999 SCT020 30/25 Q1007 NOSIG

Tid: 18:29 (11:29 UTC)

Varsel

Denne rapporten ble laget for 6 timer og 29 minutter siden, klokken 05:00 UTC
Varsel gyldig fra 15. klokken 06 UTC til 16. klokken 06 UTC
Vind 9 kt fra Vest-sørvest
Sikt 10 km eller mer
Spredte skyer i en høyde av 2000 ft
Midlertidig
fra 15. klokken 06 UTC til 15. klokken 12 UTC
Få skyer i en høyde av 1800 ft, Bygeskyer.
Spredte skyer i en høyde av 2000 ft
Brutte skyer i en høyde av 10000 ft
torden, lett regn,

TAF: VTSR 150500Z 1506/1606 24009KT 9999 SCT020 TEMPO 1506/1512 -TSRA FEW018CB SCT020 BKN100

Værobservasjoner og værvarsel for over 4000 flyplasser (METAR- og TAF-rapporter).

Tilgjengelige stasjoner er representert av de røde og gule prikkene på kartet.

Hold musepekeren over prikken for å se navnet på stasjonen.

Klikk så for å se værobservasjoner og -varsler.

For å forandre kartet kan du klikke på den grønne knappen med svart kryss for å zoome inn, på den grønne knappen med strek for å zoome ut, eller på de grønne pilene for å se tilstøtende kart.


METAR-TAF: